createdAt,value
2023-04-29T00:00:00.250Z,1012.12
2023-04-29T00:00:32.412Z,1012.02
2023-04-29T00:01:02.245Z,1012.02
2023-04-29T00:01:32.500Z,1011.92
2023-04-29T00:02:04.408Z,1012.22
2023-04-29T00:02:34.550Z,1012.22
2023-04-29T00:03:06.475Z,1012.12
2023-04-29T00:03:37.880Z,1012.12
2023-04-29T00:04:08.810Z,1012.02
2023-04-29T00:04:38.662Z,1012.02
2023-04-29T00:05:10.882Z,1012.02
2023-04-29T00:05:40.602Z,1012.02
2023-04-29T00:06:12.633Z,1012.12
2023-04-29T00:06:42.729Z,1012.12
2023-04-29T00:07:14.204Z,1011.92
2023-04-29T00:07:44.613Z,1011.92
2023-04-29T00:08:16.151Z,1012.02
2023-04-29T00:08:47.481Z,1012.02
2023-04-29T00:09:18.296Z,1011.92
2023-04-29T00:09:48.947Z,1011.92
2023-04-29T00:10:21.008Z,1011.82
2023-04-29T00:10:50.454Z,1011.82
2023-04-29T00:11:22.218Z,1012.02
2023-04-29T00:11:52.486Z,1012.02
2023-04-29T00:12:24.505Z,1012.12
2023-04-29T00:12:54.685Z,1012.12
2023-04-29T00:13:26.331Z,1011.61
2023-04-29T00:13:57.519Z,1011.61
2023-04-29T00:14:28.445Z,1011.82
2023-04-29T00:14:58.495Z,1011.82
2023-04-29T00:15:31.033Z,1012.02
2023-04-29T00:16:00.753Z,1012.02
2023-04-29T00:16:32.237Z,1011.92
2023-04-29T00:17:03.117Z,1012.12
2023-04-29T00:17:34.691Z,1012.12
2023-04-29T00:18:04.630Z,1011.92
2023-04-29T00:18:36.173Z,1011.92
2023-04-29T00:19:07.474Z,1011.72
2023-04-29T00:19:38.198Z,1011.72
2023-04-29T00:20:08.985Z,1011.92
2023-04-29T00:20:40.306Z,1011.92
2023-04-29T00:21:10.530Z,1011.92
2023-04-29T00:21:42.189Z,1011.92
2023-04-29T00:22:12.469Z,1011.92
2023-04-29T00:22:44.209Z,1011.92
2023-04-29T00:23:14.485Z,1011.82
2023-04-29T00:23:46.422Z,1011.82
2023-04-29T00:24:17.463Z,1011.92
2023-04-29T00:24:47.863Z,1011.92
2023-04-29T00:25:19.697Z,1012.02
2023-04-29T00:25:49.516Z,1012.02
2023-04-29T00:26:21.277Z,1011.92
2023-04-29T00:26:51.455Z,1011.92
2023-04-29T00:27:23.150Z,1011.82
2023-04-29T00:27:53.457Z,1011.82
2023-04-29T00:28:25.197Z,1011.92
2023-04-29T00:28:55.438Z,1011.92
2023-04-29T00:29:28.278Z,1012.02
2023-04-29T00:29:57.497Z,1012.02
2023-04-29T00:30:30.392Z,1012.02
2023-04-29T00:30:59.532Z,1012.02
2023-04-29T00:31:31.156Z,1011.72
2023-04-29T00:32:01.458Z,1011.72
2023-04-29T00:32:33.168Z,1011.72
2023-04-29T00:33:03.489Z,1011.82
2023-04-29T00:33:35.325Z,1011.82
2023-04-29T00:34:05.471Z,1011.92
2023-04-29T00:34:38.186Z,1011.92
2023-04-29T00:35:08.431Z,1011.82
2023-04-29T00:35:39.155Z,1011.82
2023-04-29T00:36:09.480Z,1011.82
2023-04-29T00:36:41.143Z,1011.82
2023-04-29T00:37:11.928Z,1011.61
2023-04-29T00:37:43.189Z,1011.61
2023-04-29T00:38:13.505Z,1011.72
2023-04-29T00:38:45.120Z,1011.72
2023-04-29T00:39:15.588Z,1011.72
2023-04-29T00:39:48.620Z,1011.72
2023-04-29T00:40:18.045Z,1011.82
2023-04-29T00:40:49.182Z,1011.82
2023-04-29T00:41:19.523Z,1011.82
2023-04-29T00:41:51.134Z,1011.82
2023-04-29T00:42:21.501Z,1011.92
2023-04-29T00:42:53.137Z,1011.92
2023-04-29T00:43:23.650Z,1011.72
2023-04-29T00:43:55.494Z,1011.72
2023-04-29T00:44:26.016Z,1011.82
2023-04-29T00:44:58.675Z,1011.82
2023-04-29T00:45:28.662Z,1011.82
2023-04-29T00:45:59.272Z,1011.82
2023-04-29T00:46:29.503Z,1011.92
2023-04-29T00:47:01.254Z,1011.92
2023-04-29T00:47:31.470Z,1011.72
2023-04-29T00:48:03.290Z,1011.72
2023-04-29T00:48:33.868Z,1011.72
2023-04-29T00:49:05.166Z,1011.82
2023-04-29T00:49:35.478Z,1011.82
2023-04-29T00:50:08.658Z,1011.61
2023-04-29T00:50:37.930Z,1011.61
2023-04-29T00:51:09.184Z,1011.72
2023-04-29T00:51:39.440Z,1011.72
2023-04-29T00:52:11.201Z,1011.92
2023-04-29T00:52:41.453Z,1011.92
2023-04-29T00:53:13.185Z,1011.82
2023-04-29T00:53:43.627Z,1011.82
2023-04-29T00:54:15.161Z,1011.82
2023-04-29T00:54:45.499Z,1011.82
2023-04-29T00:55:18.706Z,1011.82
2023-04-29T00:55:47.876Z,1011.82
2023-04-29T00:56:19.225Z,1011.92
2023-04-29T00:56:49.435Z,1011.92
2023-04-29T00:57:21.536Z,1011.82
2023-04-29T00:57:51.457Z,1011.82
2023-04-29T00:58:23.209Z,1011.82
2023-04-29T00:58:53.466Z,1011.82
2023-04-29T00:59:25.149Z,1012.02
2023-04-29T00:59:55.474Z,1012.02
2023-04-29T01:00:29.366Z,1011.92
2023-04-29T01:00:57.568Z,1011.92
2023-04-29T01:01:29.157Z,1011.82
2023-04-29T01:01:59.552Z,1011.82
2023-04-29T01:02:31.392Z,1011.82
2023-04-29T01:03:01.572Z,1011.82
2023-04-29T01:03:33.279Z,1012.12
2023-04-29T01:04:04.231Z,1011.82
2023-04-29T01:04:36.043Z,1011.82
2023-04-29T01:05:06.405Z,1011.82
2023-04-29T01:05:38.205Z,1011.82
2023-04-29T01:06:07.818Z,1011.92
2023-04-29T01:06:39.398Z,1011.92
2023-04-29T01:07:09.899Z,1011.72
2023-04-29T01:07:41.177Z,1011.72
2023-04-29T01:08:11.537Z,1011.82
2023-04-29T01:08:44.448Z,1011.82
2023-04-29T01:09:13.455Z,1011.82
2023-04-29T01:09:45.245Z,1011.82
2023-04-29T01:10:15.957Z,1011.92
2023-04-29T01:10:48.364Z,1011.92
2023-04-29T01:11:17.430Z,1011.92
2023-04-29T01:11:49.191Z,1011.92
2023-04-29T01:12:19.449Z,1011.61
2023-04-29T01:12:51.138Z,1011.61
2023-04-29T01:13:21.507Z,1011.72
2023-04-29T01:13:53.151Z,1011.72
2023-04-29T01:14:23.453Z,1012.02
2023-04-29T01:14:55.190Z,1012.02
2023-04-29T01:15:26.554Z,1011.82
2023-04-29T01:15:58.238Z,1011.82
2023-04-29T01:16:27.817Z,1012.12
2023-04-29T01:16:59.166Z,1012.12
2023-04-29T01:17:30.041Z,1011.72
2023-04-29T01:18:01.276Z,1011.72
2023-04-29T01:18:31.488Z,1011.61
2023-04-29T01:19:03.281Z,1011.92
2023-04-29T01:19:33.493Z,1011.92
2023-04-29T01:20:06.297Z,1011.82
2023-04-29T01:20:39.380Z,1011.82
2023-04-29T01:21:08.126Z,1011.61
2023-04-29T01:21:37.511Z,1011.61
2023-04-29T01:22:09.173Z,1011.72
2023-04-29T01:22:39.473Z,1011.72
2023-04-29T01:23:11.128Z,1011.61
2023-04-29T01:23:41.420Z,1011.61
2023-04-29T01:24:12.974Z,1011.92
2023-04-29T01:24:43.467Z,1011.92
2023-04-29T01:25:15.704Z,1011.72
2023-04-29T01:25:45.440Z,1011.72
2023-04-29T01:26:18.231Z,1011.72
2023-04-29T01:26:47.765Z,1011.72
2023-04-29T01:27:19.149Z,1011.72
2023-04-29T01:27:49.485Z,1011.72
2023-04-29T01:28:21.175Z,1011.92
2023-04-29T01:28:51.469Z,1011.92
2023-04-29T01:29:23.149Z,1011.82
2023-04-29T01:29:53.715Z,1011.82
2023-04-29T01:30:26.134Z,1011.92
2023-04-29T01:30:55.989Z,1011.92
2023-04-29T01:31:28.350Z,1011.82
2023-04-29T01:31:57.993Z,1011.82
2023-04-29T01:32:29.404Z,1012.02
2023-04-29T01:32:59.528Z,1012.02
2023-04-29T01:33:31.233Z,1011.92
2023-04-29T01:34:01.459Z,1011.92
2023-04-29T01:34:33.134Z,1012.02
2023-04-29T01:35:04.049Z,1011.82
2023-04-29T01:35:35.153Z,1011.82
2023-04-29T01:36:05.419Z,1011.61
2023-04-29T01:36:38.207Z,1011.61
2023-04-29T01:37:07.826Z,1011.82
2023-04-29T01:37:39.693Z,1011.82
2023-04-29T01:38:09.901Z,1011.61
2023-04-29T01:38:41.134Z,1011.61
2023-04-29T01:39:11.476Z,1011.82
2023-04-29T01:39:43.238Z,1011.82
2023-04-29T01:40:14.116Z,1011.72
2023-04-29T01:40:45.690Z,1011.72
2023-04-29T01:41:15.434Z,1011.51
2023-04-29T01:41:48.282Z,1011.51
2023-04-29T01:42:17.576Z,1011.72
2023-04-29T01:42:49.165Z,1011.72
2023-04-29T01:43:19.446Z,1011.92
2023-04-29T01:43:51.170Z,1011.92
2023-04-29T01:44:21.482Z,1011.82
2023-04-29T01:44:53.170Z,1011.82
2023-04-29T01:45:24.607Z,1011.61
2023-04-29T01:45:55.473Z,1011.61
2023-04-29T01:46:25.472Z,1011.72
2023-04-29T01:46:58.746Z,1011.72
2023-04-29T01:47:27.837Z,1011.72
2023-04-29T01:47:59.322Z,1011.72
2023-04-29T01:48:29.919Z,1011.92
2023-04-29T01:49:01.186Z,1011.92
2023-04-29T01:49:31.465Z,1011.61
2023-04-29T01:50:03.846Z,1011.61
2023-04-29T01:50:34.136Z,1011.61
2023-04-29T01:51:05.696Z,1011.61
2023-04-29T01:51:35.459Z,1011.61
2023-04-29T01:52:08.210Z,1011.61
2023-04-29T01:52:37.464Z,1011.61
2023-04-29T01:53:09.162Z,1011.51
2023-04-29T01:53:39.445Z,1011.51
2023-04-29T01:54:11.136Z,1011.72
2023-04-29T01:54:41.479Z,1011.72
2023-04-29T01:55:13.678Z,1011.61
2023-04-29T01:55:43.482Z,1011.61
2023-04-29T01:56:15.160Z,1011.41
2023-04-29T01:56:45.429Z,1011.41
2023-04-29T01:57:18.693Z,1011.51
2023-04-29T01:57:48.409Z,1011.51
2023-04-29T01:58:19.189Z,1011.72
2023-04-29T01:58:49.483Z,1011.72
2023-04-29T01:59:21.238Z,1011.72
2023-04-29T01:59:51.846Z,1011.72
2023-04-29T02:00:27.069Z,1011.41
2023-04-29T02:00:55.654Z,1011.41
2023-04-29T02:01:25.248Z,1011.61
2023-04-29T02:01:56.086Z,1011.61
2023-04-29T02:02:28.249Z,1011.61
2023-04-29T02:02:57.595Z,1011.61
2023-04-29T02:03:29.365Z,1011.61
2023-04-29T02:03:59.642Z,1011.61
2023-04-29T02:04:31.865Z,1011.61
2023-04-29T02:05:03.348Z,1011.61
2023-04-29T02:05:33.221Z,1011.31
2023-04-29T02:06:03.781Z,1011.61
2023-04-29T02:06:36.151Z,1011.61
2023-04-29T02:07:05.458Z,1011.61
2023-04-29T02:07:38.129Z,1011.61
2023-04-29T02:08:07.738Z,1011.51
2023-04-29T02:08:39.114Z,1011.51
2023-04-29T02:09:09.452Z,1011.51
2023-04-29T02:09:41.185Z,1011.51
2023-04-29T02:10:12.066Z,1011.61
2023-04-29T02:10:43.137Z,1011.61
2023-04-29T02:11:13.425Z,1011.41
2023-04-29T02:11:45.168Z,1011.41
2023-04-29T02:12:15.471Z,1011.61
2023-04-29T02:12:48.248Z,1011.61
2023-04-29T02:13:17.473Z,1011.72
2023-04-29T02:13:49.163Z,1011.72
2023-04-29T02:14:19.440Z,1011.51
2023-04-29T02:14:51.189Z,1011.51
2023-04-29T02:15:22.522Z,1011.72
2023-04-29T02:15:53.237Z,1011.72
2023-04-29T02:16:23.463Z,1011.41
2023-04-29T02:16:55.158Z,1011.41
2023-04-29T02:17:25.416Z,1011.51
2023-04-29T02:17:58.572Z,1011.51
2023-04-29T02:18:27.878Z,1011.51
2023-04-29T02:18:58.474Z,1011.51
2023-04-29T02:19:30.165Z,1011.82
2023-04-29T02:20:00.513Z,1011.82
2023-04-29T02:20:38.091Z,1011.72
2023-04-29T02:21:02.539Z,1011.61
2023-04-29T02:21:34.277Z,1011.61
2023-04-29T02:22:04.792Z,1011.51
2023-04-29T02:22:37.059Z,1011.51
2023-04-29T02:23:07.512Z,1011.51
2023-04-29T02:23:38.613Z,1011.51
2023-04-29T02:24:08.457Z,1011.61
2023-04-29T02:24:39.440Z,1011.61
2023-04-29T02:25:11.740Z,1011.72
2023-04-29T02:25:41.485Z,1011.72
2023-04-29T02:26:13.162Z,1011.72
2023-04-29T02:26:43.678Z,1011.72
2023-04-29T02:27:15.182Z,1011.72
2023-04-29T02:27:45.432Z,1011.72
2023-04-29T02:28:18.198Z,1011.72
2023-04-29T02:28:47.793Z,1011.72
2023-04-29T02:29:19.138Z,1011.72
2023-04-29T02:29:49.455Z,1011.72
2023-04-29T02:30:22.760Z,1011.51
2023-04-29T02:30:51.486Z,1011.51
2023-04-29T02:31:23.603Z,1011.72
2023-04-29T02:31:53.535Z,1011.72
2023-04-29T02:32:25.220Z,1011.51
2023-04-29T02:32:55.497Z,1011.51
2023-04-29T02:33:28.187Z,1011.72
2023-04-29T02:33:57.483Z,1011.72
2023-04-29T02:34:29.181Z,1011.51
2023-04-29T02:34:59.441Z,1011.51
2023-04-29T02:35:31.729Z,1011.51
2023-04-29T02:36:01.435Z,1011.51
2023-04-29T02:36:33.178Z,1011.41
2023-04-29T02:37:03.493Z,1011.61
2023-04-29T02:37:35.228Z,1011.61
2023-04-29T02:38:05.458Z,1011.61
2023-04-29T02:38:38.251Z,1011.61
2023-04-29T02:39:07.719Z,1011.61
2023-04-29T02:39:39.171Z,1011.61
2023-04-29T02:40:10.003Z,1011.61
2023-04-29T02:40:42.437Z,1011.61
2023-04-29T02:41:11.561Z,1011.51
2023-04-29T02:41:43.171Z,1011.51
2023-04-29T02:42:13.886Z,1011.61
2023-04-29T02:42:45.251Z,1011.61
2023-04-29T02:43:15.494Z,1011.41
2023-04-29T02:43:48.235Z,1011.41
2023-04-29T02:44:17.460Z,1011.61
2023-04-29T02:44:49.693Z,1011.61
2023-04-29T02:45:20.410Z,1011.61
2023-04-29T02:45:51.275Z,1011.61
2023-04-29T02:46:21.548Z,1011.61
2023-04-29T02:46:53.180Z,1011.61
2023-04-29T02:47:23.464Z,1011.51
2023-04-29T02:47:55.283Z,1011.51
2023-04-29T02:48:25.502Z,1011.72
2023-04-29T02:48:58.643Z,1011.72
2023-04-29T02:49:27.842Z,1011.51
2023-04-29T02:49:58.568Z,1011.51
2023-04-29T02:50:30.695Z,1011.61
2023-04-29T02:51:00.670Z,1011.61
2023-04-29T02:51:32.713Z,1011.31
2023-04-29T02:52:02.529Z,1011.51
2023-04-29T02:52:34.221Z,1011.51
2023-04-29T02:53:04.511Z,1011.51
2023-04-29T02:53:36.192Z,1011.51
2023-04-29T02:54:07.445Z,1011.61
2023-04-29T02:54:38.119Z,1011.61
2023-04-29T02:55:08.877Z,1011.51
2023-04-29T02:55:40.175Z,1011.51
2023-04-29T02:56:10.440Z,1011.41
2023-04-29T02:56:42.129Z,1011.41
2023-04-29T02:57:12.446Z,1011.51
2023-04-29T02:57:44.182Z,1011.51
2023-04-29T02:58:14.537Z,1011.51
2023-04-29T02:58:46.131Z,1011.51
2023-04-29T02:59:17.434Z,1011.51
2023-04-29T02:59:48.558Z,1011.51
2023-04-29T03:00:19.840Z,1011.82
2023-04-29T03:00:53.415Z,1011.82
2023-04-29T03:01:20.602Z,1011.51
2023-04-29T03:01:52.331Z,1011.51
2023-04-29T03:02:22.997Z,1011.31
2023-04-29T03:02:54.627Z,1011.31
2023-04-29T03:03:24.781Z,1011.41
2023-04-29T03:03:56.467Z,1011.41
2023-04-29T03:04:27.611Z,1011.51
2023-04-29T03:04:58.702Z,1011.51
2023-04-29T03:05:29.051Z,1011.51
2023-04-29T03:06:00.380Z,1011.51
2023-04-29T03:06:30.785Z,1011.51
2023-04-29T03:07:02.252Z,1011.51
2023-04-29T03:07:32.520Z,1011.24
2023-04-29T03:08:04.458Z,1011.31
2023-04-29T03:08:35.190Z,1011.31
2023-04-29T03:09:06.330Z,1011.61
2023-04-29T03:09:37.546Z,1011.61
2023-04-29T03:10:09.144Z,1011.24
2023-04-29T03:10:41.103Z,1011.24
2023-04-29T03:11:10.469Z,1011.31
2023-04-29T03:11:40.593Z,1011.31
2023-04-29T03:12:12.321Z,1011.41
2023-04-29T03:12:42.460Z,1011.41
2023-04-29T03:13:14.239Z,1011.41
2023-04-29T03:13:44.517Z,1011.41
2023-04-29T03:14:16.305Z,1011.31
2023-04-29T03:14:47.438Z,1011.31
2023-04-29T03:15:19.099Z,1011.31
2023-04-29T03:15:49.353Z,1011.31
2023-04-29T03:16:20.244Z,1011.31
2023-04-29T03:16:50.469Z,1011.31
2023-04-29T03:17:22.144Z,1011.41
2023-04-29T03:17:52.700Z,1011.41
2023-04-29T03:18:25.031Z,1011.41
2023-04-29T03:18:54.583Z,1011.41
2023-04-29T03:19:26.291Z,1011.41
2023-04-29T03:19:57.494Z,1011.41
2023-04-29T03:20:37.321Z,1011.31
2023-04-29T03:20:58.537Z,1011.31
2023-04-29T03:21:30.122Z,1011.24
2023-04-29T03:22:00.767Z,1011.24
2023-04-29T03:22:32.208Z,1011.41
2023-04-29T03:23:02.637Z,1011.41
2023-04-29T03:23:34.154Z,1011.41
2023-04-29T03:24:12.630Z,1011.41
2023-04-29T03:24:35.444Z,1011.31
2023-04-29T03:25:08.658Z,1011.31
2023-04-29T03:25:37.504Z,1011.31
2023-04-29T03:26:09.320Z,1011.31
2023-04-29T03:26:39.608Z,1011.31
2023-04-29T03:27:11.168Z,1011.04
2023-04-29T03:27:41.399Z,1011.04
2023-04-29T03:28:13.277Z,1011.31
2023-04-29T03:28:43.542Z,1011.31
2023-04-29T03:29:15.143Z,1011.41
2023-04-29T03:29:45.581Z,1011.41
2023-04-29T03:30:20.224Z,1011.31
2023-04-29T03:30:47.916Z,1011.31
2023-04-29T03:31:19.261Z,1011.24
2023-04-29T03:31:49.557Z,1011.24
2023-04-29T03:32:21.324Z,1011.31
2023-04-29T03:32:51.600Z,1011.31
2023-04-29T03:33:23.268Z,1011.24
2023-04-29T03:33:53.577Z,1011.24
2023-04-29T03:34:25.195Z,1011.04
2023-04-29T03:34:55.524Z,1011.04
2023-04-29T03:35:28.812Z,1011.41
2023-04-29T03:35:58.040Z,1011.41
2023-04-29T03:36:29.178Z,1011.31
2023-04-29T03:36:59.532Z,1011.31
2023-04-29T03:37:31.271Z,1011.24
2023-04-29T03:38:01.550Z,1011.24
2023-04-29T03:38:33.467Z,1011.04
2023-04-29T03:39:03.460Z,1011.31
2023-04-29T03:39:35.181Z,1011.31
2023-04-29T03:40:06.172Z,1011.04
2023-04-29T03:40:38.227Z,1011.04
2023-04-29T03:41:07.756Z,1011.24
2023-04-29T03:41:39.216Z,1011.24
2023-04-29T03:42:09.966Z,1011.31
2023-04-29T03:42:41.198Z,1011.31
2023-04-29T03:43:11.467Z,1011.14
2023-04-29T03:43:43.240Z,1011.14
2023-04-29T03:44:13.512Z,1011.24
2023-04-29T03:44:45.219Z,1011.24
2023-04-29T03:45:17.043Z,1011.24
2023-04-29T03:45:48.347Z,1011.24
2023-04-29T03:46:17.522Z,1011.31
2023-04-29T03:46:49.204Z,1011.31
2023-04-29T03:47:19.463Z,1011.24
2023-04-29T03:47:51.415Z,1011.24
2023-04-29T03:48:21.487Z,1011.24
2023-04-29T03:48:53.149Z,1011.24
2023-04-29T03:49:24.188Z,1011.24
2023-04-29T03:49:55.206Z,1011.24
2023-04-29T03:50:26.243Z,1011.24
2023-04-29T03:50:58.195Z,1011.24
2023-04-29T03:51:28.245Z,1011.04
2023-04-29T03:51:59.613Z,1011.04
2023-04-29T03:52:29.685Z,1011.24
2023-04-29T03:53:01.195Z,1011.24
2023-04-29T03:53:31.548Z,1011.14
2023-04-29T03:54:03.484Z,1011.24
2023-04-29T03:54:33.758Z,1011.24
2023-04-29T03:55:05.951Z,1011.24
2023-04-29T03:55:35.699Z,1011.24
2023-04-29T03:56:08.370Z,1011.31
2023-04-29T03:56:37.563Z,1011.31
2023-04-29T03:57:09.271Z,1011.24
2023-04-29T03:57:42.100Z,1011.24
2023-04-29T03:58:11.269Z,1011.14
2023-04-29T03:58:41.588Z,1011.14
2023-04-29T03:59:13.283Z,1011.31
2023-04-29T03:59:43.711Z,1011.31
2023-04-29T04:00:16.165Z,1011.24
2023-04-29T04:00:53.430Z,1011.24
2023-04-29T04:01:19.055Z,1011.24
2023-04-29T04:01:47.935Z,1011.24
2023-04-29T04:02:19.286Z,1011.24
2023-04-29T04:02:50.232Z,1011.24
2023-04-29T04:03:21.393Z,1011.14
2023-04-29T04:03:51.819Z,1011.14
2023-04-29T04:04:23.494Z,1011.31
2023-04-29T04:04:53.677Z,1011.31
2023-04-29T04:05:26.161Z,1011.24
2023-04-29T04:05:55.605Z,1011.24
2023-04-29T04:06:28.274Z,1011.31
2023-04-29T04:06:57.619Z,1011.31
2023-04-29T04:07:29.254Z,1011.24
2023-04-29T04:07:59.640Z,1011.24
2023-04-29T04:08:31.304Z,1011.31
2023-04-29T04:09:01.626Z,1011.31
2023-04-29T04:09:33.242Z,1011.31
2023-04-29T04:10:04.103Z,1011.24
2023-04-29T04:10:36.189Z,1011.24
2023-04-29T04:11:05.598Z,1011.51
2023-04-29T04:11:38.324Z,1011.51
2023-04-29T04:12:08.129Z,1011.31
2023-04-29T04:12:39.251Z,1011.31
2023-04-29T04:13:09.549Z,1011.51
2023-04-29T04:13:41.265Z,1011.51
2023-04-29T04:14:11.586Z,1011.41
2023-04-29T04:14:43.229Z,1011.41
2023-04-29T04:15:15.220Z,1011.41
2023-04-29T04:15:45.314Z,1011.41
2023-04-29T04:16:16.089Z,1011.31
2023-04-29T04:16:48.294Z,1011.31
2023-04-29T04:17:17.580Z,1011.24
2023-04-29T04:17:49.344Z,1011.24
2023-04-29T04:18:19.605Z,1011.31
2023-04-29T04:18:51.775Z,1011.31
2023-04-29T04:19:21.540Z,1011.31
2023-04-29T04:19:53.749Z,1011.31
2023-04-29T04:20:24.195Z,1011.31
2023-04-29T04:20:55.236Z,1011.31
2023-04-29T04:21:25.569Z,1011.41
2023-04-29T04:21:58.305Z,1011.41
2023-04-29T04:22:28.143Z,1011.51
2023-04-29T04:22:59.326Z,1011.51
2023-04-29T04:23:29.585Z,1011.31
2023-04-29T04:24:01.369Z,1011.31
2023-04-29T04:24:31.539Z,1011.31
2023-04-29T04:25:03.925Z,1011.31
2023-04-29T04:25:34.763Z,1011.31
2023-04-29T04:26:05.268Z,1011.24
2023-04-29T04:26:35.580Z,1011.24
2023-04-29T04:27:08.235Z,1011.41
2023-04-29T04:27:37.504Z,1011.41
2023-04-29T04:28:09.371Z,1011.51
2023-04-29T04:28:39.911Z,1011.51
2023-04-29T04:29:11.228Z,1011.51
2023-04-29T04:29:42.133Z,1011.51
2023-04-29T04:30:14.491Z,1011.41
2023-04-29T04:30:43.596Z,1011.41
2023-04-29T04:31:15.297Z,1011.31
2023-04-29T04:31:47.108Z,1011.31
2023-04-29T04:32:18.430Z,1011.51
2023-04-29T04:32:47.886Z,1011.51
2023-04-29T04:33:19.492Z,1011.51
2023-04-29T04:33:49.833Z,1011.51
2023-04-29T04:34:21.257Z,1011.61
2023-04-29T04:34:51.572Z,1011.61
2023-04-29T04:35:23.897Z,1011.31
2023-04-29T04:35:53.604Z,1011.31
2023-04-29T04:36:25.666Z,1011.51
2023-04-29T04:36:55.562Z,1011.51
2023-04-29T04:37:28.287Z,1011.51
2023-04-29T04:37:57.566Z,1011.51
2023-04-29T04:38:29.294Z,1011.41
2023-04-29T04:38:59.584Z,1011.41
2023-04-29T04:39:31.292Z,1011.41
2023-04-29T04:40:02.374Z,1011.41
2023-04-29T04:40:37.351Z,1011.61
2023-04-29T04:41:03.614Z,1011.61
2023-04-29T04:41:35.241Z,1011.61
2023-04-29T04:42:05.510Z,1011.51
2023-04-29T04:42:39.148Z,1011.51
2023-04-29T04:43:08.293Z,1011.51
2023-04-29T04:43:38.566Z,1011.51
2023-04-29T04:44:10.315Z,1011.51
2023-04-29T04:44:40.567Z,1011.51
2023-04-29T04:45:13.857Z,1011.41
2023-04-29T04:45:42.803Z,1011.41
2023-04-29T04:46:14.363Z,1011.41
2023-04-29T04:46:44.520Z,1011.41
2023-04-29T04:47:16.394Z,1011.61
2023-04-29T04:47:47.632Z,1011.61
2023-04-29T04:48:18.273Z,1011.41
2023-04-29T04:48:48.679Z,1011.41
2023-04-29T04:49:20.391Z,1011.31
2023-04-29T04:49:51.176Z,1011.31
2023-04-29T04:50:22.792Z,1011.51
2023-04-29T04:50:52.575Z,1011.51
2023-04-29T04:51:24.458Z,1011.41
2023-04-29T04:51:54.699Z,1011.41
2023-04-29T04:52:26.881Z,1011.41
2023-04-29T04:52:57.572Z,1011.41
2023-04-29T04:53:28.581Z,1011.24
2023-04-29T04:53:58.549Z,1011.24
2023-04-29T04:54:30.428Z,1011.61
2023-04-29T04:55:00.957Z,1011.61
2023-04-29T04:55:32.861Z,1011.51
2023-04-29T04:56:02.657Z,1011.31
2023-04-29T04:56:34.304Z,1011.31
2023-04-29T04:57:04.558Z,1011.51
2023-04-29T04:57:37.457Z,1011.51
2023-04-29T04:58:07.549Z,1011.51
2023-04-29T04:58:38.270Z,1011.51
2023-04-29T04:59:08.584Z,1011.31
2023-04-29T04:59:40.262Z,1011.31
2023-04-29T05:00:11.627Z,1011.24
2023-04-29T05:00:50.698Z,1011.24
2023-04-29T05:01:12.643Z,1011.31
2023-04-29T05:01:44.327Z,1011.31
2023-04-29T05:02:14.617Z,1011.31
2023-04-29T05:02:46.992Z,1011.31
2023-04-29T05:03:17.665Z,1011.31
2023-04-29T05:03:48.791Z,1011.31
2023-04-29T05:04:18.942Z,1011.31
2023-04-29T05:04:50.281Z,1011.31
2023-04-29T05:05:21.531Z,1011.41
2023-04-29T05:05:52.773Z,1011.41
2023-04-29T05:06:22.594Z,1011.31
2023-04-29T05:06:54.389Z,1011.31
2023-04-29T05:07:24.754Z,1011.51
2023-04-29T05:07:56.384Z,1011.51
2023-04-29T05:08:27.613Z,1011.51
2023-04-29T05:08:58.203Z,1011.51
2023-04-29T05:09:28.601Z,1011.51
2023-04-29T05:10:00.400Z,1011.51
2023-04-29T05:10:31.162Z,1011.31
2023-04-29T05:11:02.295Z,1011.31
2023-04-29T05:11:32.574Z,1011.61
2023-04-29T05:12:04.327Z,1011.61
2023-04-29T05:12:34.605Z,1011.61
2023-04-29T05:13:06.238Z,1011.61
2023-04-29T05:13:37.574Z,1011.61
2023-04-29T05:14:08.637Z,1011.51
2023-04-29T05:14:38.593Z,1011.51
2023-04-29T05:15:11.578Z,1011.51
2023-04-29T05:15:40.639Z,1011.51
2023-04-29T05:16:12.282Z,1011.41
2023-04-29T05:16:42.952Z,1011.41
2023-04-29T05:17:14.321Z,1011.61
2023-04-29T05:17:44.588Z,1011.61
2023-04-29T05:18:16.270Z,1011.61
2023-04-29T05:18:47.555Z,1011.61
2023-04-29T05:19:19.002Z,1011.51
2023-04-29T05:19:48.537Z,1011.51
2023-04-29T05:20:20.906Z,1011.41
2023-04-29T05:20:50.571Z,1011.41
2023-04-29T05:21:22.321Z,1011.41
2023-04-29T05:21:52.585Z,1011.41
2023-04-29T05:22:24.434Z,1011.61
2023-04-29T05:22:54.617Z,1011.61
2023-04-29T05:23:26.434Z,1011.61
2023-04-29T05:23:57.774Z,1011.61
2023-04-29T05:24:27.898Z,1011.31
2023-04-29T05:24:58.582Z,1011.31
2023-04-29T05:25:30.862Z,1011.61
2023-04-29T05:26:00.691Z,1011.61
2023-04-29T05:26:32.285Z,1011.72
2023-04-29T05:27:02.741Z,1011.72
2023-04-29T05:27:34.265Z,1011.72
2023-04-29T05:28:04.656Z,1011.72
2023-04-29T05:28:36.328Z,1011.72
2023-04-29T05:29:07.733Z,1011.72
2023-04-29T05:29:38.361Z,1011.72
2023-04-29T05:30:10.340Z,1011.61
2023-04-29T05:30:40.504Z,1011.61
2023-04-29T05:31:10.656Z,1011.72
2023-04-29T05:31:42.298Z,1011.72
2023-04-29T05:32:12.612Z,1011.82
2023-04-29T05:32:44.824Z,1011.82
2023-04-29T05:33:14.591Z,1011.82
2023-04-29T05:33:46.424Z,1011.82
2023-04-29T05:34:17.581Z,1011.82
2023-04-29T05:34:48.576Z,1011.82
2023-04-29T05:35:19.278Z,1011.82
2023-04-29T05:35:50.262Z,1011.82
2023-04-29T05:36:20.546Z,1011.82
2023-04-29T05:36:52.529Z,1011.82
2023-04-29T05:37:22.554Z,1011.82
2023-04-29T05:37:54.432Z,1011.82
2023-04-29T05:38:24.701Z,1011.92
2023-04-29T05:38:56.318Z,1011.92
2023-04-29T05:39:28.065Z,1011.82
2023-04-29T05:39:58.299Z,1011.82
2023-04-29T05:40:37.898Z,1011.61
2023-04-29T05:41:00.351Z,1011.61
2023-04-29T05:41:30.604Z,1011.82
2023-04-29T05:42:02.273Z,1011.82
2023-04-29T05:42:32.551Z,1011.61
2023-04-29T05:43:04.285Z,1011.82
2023-04-29T05:43:36.782Z,1011.82
2023-04-29T05:44:06.263Z,1011.92
2023-04-29T05:44:37.575Z,1011.92
2023-04-29T05:45:10.386Z,1012.02
2023-04-29T05:45:38.621Z,1012.02
2023-04-29T05:46:10.850Z,1012.12
2023-04-29T05:46:40.627Z,1012.12
2023-04-29T05:47:12.234Z,1011.82
2023-04-29T05:47:42.778Z,1011.82
2023-04-29T05:48:14.340Z,1011.72
2023-04-29T05:48:44.552Z,1011.72
2023-04-29T05:49:16.290Z,1011.72
2023-04-29T05:49:47.563Z,1011.72
2023-04-29T05:50:19.160Z,1011.82
2023-04-29T05:50:48.646Z,1011.82
2023-04-29T05:51:20.287Z,1011.92
2023-04-29T05:51:50.571Z,1011.92
2023-04-29T05:52:22.313Z,1011.92
2023-04-29T05:52:52.485Z,1011.92
2023-04-29T05:53:24.446Z,1011.92
2023-04-29T05:53:54.648Z,1011.92
2023-04-29T05:54:26.246Z,1011.92
2023-04-29T05:54:58.094Z,1011.92
2023-04-29T05:55:29.082Z,1012.12
2023-04-29T05:55:58.569Z,1012.12
2023-04-29T05:56:30.300Z,1011.92
2023-04-29T05:57:01.234Z,1011.92
2023-04-29T05:57:32.293Z,1012.02
2023-04-29T05:58:02.662Z,1012.02
2023-04-29T05:58:34.348Z,1012.02
2023-04-29T05:59:04.565Z,1012.02
2023-04-29T05:59:36.800Z,1012.02
2023-04-29T06:00:08.453Z,1011.82
2023-04-29T06:00:45.166Z,1011.82
2023-04-29T06:01:08.802Z,1011.92
2023-04-29T06:01:40.255Z,1011.92
2023-04-29T06:02:10.569Z,1011.92
2023-04-29T06:02:54.843Z,1011.92
2023-04-29T06:03:12.762Z,1012.02
2023-04-29T06:03:44.879Z,1012.02
2023-04-29T06:04:14.717Z,1012.02
2023-04-29T06:04:46.483Z,1012.02
2023-04-29T06:05:18.375Z,1012.12
2023-04-29T06:05:49.047Z,1012.12
2023-04-29T06:06:18.696Z,1012.02
2023-04-29T06:06:50.700Z,1012.02
2023-04-29T06:07:20.574Z,1012.12
2023-04-29T06:07:52.276Z,1012.12
2023-04-29T06:08:22.576Z,1012.22
2023-04-29T06:08:54.396Z,1012.22
2023-04-29T06:09:27.990Z,1011.92
2023-04-29T06:09:56.518Z,1011.92
2023-04-29T06:10:28.328Z,1012.02
2023-04-29T06:10:58.293Z,1012.02
2023-04-29T06:11:28.534Z,1011.92
2023-04-29T06:12:00.284Z,1011.92
2023-04-29T06:12:30.612Z,1012.02
2023-04-29T06:13:02.997Z,1012.02
2023-04-29T06:13:32.558Z,1012.12
2023-04-29T06:14:04.236Z,1012.12
2023-04-29T06:14:34.730Z,1012.12